createdAt,value
2018-09-23T00:00:55.573Z,10.50
2018-09-23T00:05:03.870Z,10.97
2018-09-23T00:09:12.295Z,7.13
2018-09-23T00:13:20.541Z,14.33
2018-09-23T00:17:28.888Z,10.37
2018-09-23T00:21:37.175Z,8.60
2018-09-23T00:25:45.468Z,9.83
2018-09-23T00:29:53.728Z,7.37
2018-09-23T00:34:01.994Z,8.33
2018-09-23T00:38:10.352Z,6.80
2018-09-23T00:42:18.609Z,9.10
2018-09-23T00:46:26.962Z,8.73
2018-09-23T00:50:35.233Z,8.40
2018-09-23T00:54:44.312Z,9.43
2018-09-23T00:58:52.708Z,9.57
2018-09-23T01:03:00.958Z,9.80
2018-09-23T01:07:09.196Z,10.40
2018-09-23T01:11:17.480Z,15.83
2018-09-23T01:15:26.250Z,12.67
2018-09-23T01:19:34.508Z,17.93
2018-09-23T01:23:42.809Z,14.43
2018-09-23T01:27:51.082Z,16.83
2018-09-23T01:31:59.524Z,20.20
2018-09-23T01:36:07.827Z,16.97
2018-09-23T01:40:16.229Z,24.20
2018-09-23T01:44:24.606Z,19.23
2018-09-23T01:48:32.893Z,19.97
2018-09-23T01:52:41.142Z,20.50
2018-09-23T01:56:49.443Z,22.77
2018-09-23T02:00:57.820Z,21.57
2018-09-23T02:05:06.095Z,16.57
2018-09-23T02:09:14.369Z,17.97
2018-09-23T02:13:22.839Z,21.00
2018-09-23T02:17:31.080Z,16.27
2018-09-23T02:21:39.336Z,19.90
2018-09-23T02:25:47.615Z,18.30
2018-09-23T02:29:56.120Z,20.60
2018-09-23T02:34:04.481Z,18.73
2018-09-23T02:38:12.839Z,17.57
2018-09-23T02:42:21.132Z,21.57
2018-09-23T02:46:29.439Z,20.57
2018-09-23T02:50:37.723Z,17.00
2018-09-23T02:54:46.017Z,20.37
2018-09-23T02:58:54.386Z,18.70
2018-09-23T03:03:02.684Z,22.00
2018-09-23T03:07:11.068Z,23.67
2018-09-23T03:11:19.377Z,19.97
2018-09-23T03:15:27.768Z,18.47
2018-09-23T03:19:36.110Z,14.70
2018-09-23T03:23:44.488Z,15.90
2018-09-23T03:27:52.843Z,14.87
2018-09-23T03:32:01.137Z,19.23
2018-09-23T03:36:09.429Z,21.07
2018-09-23T03:40:17.664Z,19.17
2018-09-23T03:44:26.065Z,17.10
2018-09-23T03:48:34.334Z,22.00
2018-09-23T03:52:42.680Z,14.30
2018-09-23T03:56:52.555Z,15.03
2018-09-23T04:01:00.890Z,17.40
2018-09-23T04:05:09.265Z,20.03
2018-09-23T04:09:17.589Z,14.70
2018-09-23T04:13:26.113Z,14.37
2018-09-23T04:17:34.385Z,13.13
2018-09-23T04:21:42.747Z,14.07
2018-09-23T04:25:51.063Z,13.90
2018-09-23T04:29:59.457Z,13.47
2018-09-23T04:34:07.801Z,11.80
2018-09-23T04:38:16.086Z,13.63
2018-09-23T04:42:24.509Z,14.63
2018-09-23T04:46:32.787Z,9.83
2018-09-23T04:50:41.120Z,10.08
2018-09-23T04:54:49.400Z,9.10
2018-09-23T04:58:57.922Z,8.67
2018-09-23T05:03:06.284Z,9.65
2018-09-23T05:07:14.595Z,9.50
2018-09-23T05:11:23.045Z,16.20
2018-09-23T05:15:31.363Z,11.40
2018-09-23T05:19:39.624Z,7.80
2018-09-23T05:23:47.927Z,11.20
2018-09-23T05:27:56.322Z,10.30
2018-09-23T05:32:04.598Z,12.20
2018-09-23T05:36:14.041Z,11.80
2018-09-23T05:40:22.329Z,14.17
2018-09-23T05:44:30.643Z,15.20
2018-09-23T05:48:38.876Z,17.73
2018-09-23T05:52:47.167Z,16.13
2018-09-23T05:56:55.841Z,15.70
2018-09-23T06:01:04.087Z,17.77
2018-09-23T06:05:12.495Z,16.77
2018-09-23T06:09:20.795Z,14.47
2018-09-23T06:13:29.116Z,16.30
2018-09-23T06:17:37.422Z,18.93
2018-09-23T06:21:45.838Z,15.90
2018-09-23T06:25:54.258Z,14.70
2018-09-23T06:30:02.532Z,15.80
2018-09-23T06:34:10.841Z,14.27
2018-09-23T06:38:19.085Z,14.27
2018-09-23T06:42:27.607Z,19.00
2018-09-23T06:46:35.945Z,15.93
2018-09-23T06:50:44.214Z,12.73
2018-09-23T06:54:52.553Z,20.23
2018-09-23T06:59:00.970Z,19.30
2018-09-23T07:03:09.230Z,12.30
2018-09-23T07:07:17.523Z,15.23
2018-09-23T07:11:25.840Z,13.30
2018-09-23T07:15:34.338Z,15.10
2018-09-23T07:19:42.635Z,21.13
2018-09-23T07:23:51.018Z,12.60
2018-09-23T07:27:59.181Z,16.20
2018-09-23T07:32:07.493Z,18.60
2018-09-23T07:36:15.728Z,14.63
2018-09-23T07:40:24.063Z,15.08
2018-09-23T07:44:33.012Z,13.80
2018-09-23T07:48:41.281Z,11.93
2018-09-23T07:52:49.745Z,14.27
2018-09-23T07:56:58.027Z,12.00
2018-09-23T08:01:06.491Z,13.73
2018-09-23T08:05:14.864Z,14.27
2018-09-23T08:09:23.176Z,14.60
2018-09-23T08:13:31.760Z,16.07
2018-09-23T08:17:39.876Z,18.33
2018-09-23T08:21:48.165Z,17.32
2018-09-23T08:25:56.505Z,19.70
2018-09-23T08:30:05.090Z,23.13
2018-09-23T08:34:13.354Z,22.57
2018-09-23T08:38:21.808Z,30.33
2018-09-23T08:42:30.169Z,25.37
2018-09-23T08:46:38.500Z,29.23
2018-09-23T08:50:46.753Z,23.80
2018-09-23T08:54:55.066Z,27.67
2018-09-23T08:59:03.451Z,35.13
2018-09-23T09:03:11.733Z,34.20
2018-09-23T09:07:20.176Z,31.90
2018-09-23T09:11:28.491Z,26.10
2018-09-23T09:15:36.810Z,34.33
2018-09-23T09:19:45.134Z,33.57
2018-09-23T09:23:53.440Z,31.77
2018-09-23T09:28:01.899Z,33.30
2018-09-23T09:32:10.222Z,31.45
2018-09-23T09:36:18.594Z,36.73
2018-09-23T09:40:26.940Z,35.80
2018-09-23T09:44:35.384Z,33.00
2018-09-23T09:48:43.715Z,29.07
2018-09-23T09:52:52.209Z,28.23
2018-09-23T09:57:00.702Z,26.40
2018-09-23T10:01:09.038Z,29.50
2018-09-23T10:05:17.349Z,24.93
2018-09-23T10:09:25.658Z,29.80
2018-09-23T10:13:34.085Z,27.13
2018-09-23T10:17:42.403Z,28.23
2018-09-23T10:21:50.795Z,26.20
2018-09-23T10:25:59.096Z,21.10
2018-09-23T10:30:08.110Z,25.77
2018-09-23T10:34:16.382Z,22.80
2018-09-23T10:38:24.710Z,19.83
2018-09-23T10:42:33.154Z,20.03
2018-09-23T10:46:41.490Z,15.57
2018-09-23T10:50:49.811Z,13.50
2018-09-23T10:54:58.109Z,13.03
2018-09-23T10:59:06.461Z,12.23
2018-09-23T11:03:14.731Z,13.60
2018-09-23T11:07:23.064Z,16.13
2018-09-23T11:11:31.618Z,14.33
2018-09-23T11:15:39.885Z,16.97
2018-09-23T11:19:48.152Z,12.43
2018-09-23T11:23:56.433Z,15.90
2018-09-23T11:28:04.766Z,13.17
2018-09-23T11:32:13.049Z,13.07
2018-09-23T11:36:21.383Z,14.03
2018-09-23T11:40:30.295Z,14.30
2018-09-23T11:44:38.544Z,12.17
2018-09-23T11:48:46.839Z,16.20
2018-09-23T11:52:55.090Z,19.13
2018-09-23T11:57:03.486Z,24.50
2018-09-23T12:01:11.803Z,19.03
2018-09-23T12:05:20.138Z,23.60
2018-09-23T12:09:28.431Z,23.02
2018-09-23T12:13:36.800Z,18.73
2018-09-23T12:17:45.084Z,23.33
2018-09-23T12:21:53.442Z,19.80
2018-09-23T12:26:01.930Z,19.07
2018-09-23T12:30:10.247Z,19.97
2018-09-23T12:34:18.569Z,17.92
2018-09-23T12:38:26.828Z,17.17
2018-09-23T12:42:35.150Z,16.43
2018-09-23T12:46:43.447Z,18.25
2018-09-23T12:50:52.126Z,19.70
2018-09-23T12:55:00.386Z,18.53
2018-09-23T12:59:08.966Z,15.40
2018-09-23T13:03:17.224Z,16.93
2018-09-23T13:07:25.566Z,13.13
2018-09-23T13:11:33.919Z,10.30
2018-09-23T13:15:42.202Z,11.80
2018-09-23T13:19:50.601Z,13.07
2018-09-23T13:23:58.917Z,9.13
2018-09-23T13:28:07.242Z,10.40
2018-09-23T13:32:15.525Z,14.83
2018-09-23T13:36:24.018Z,27.63
2018-09-23T13:40:32.265Z,12.93
2018-09-23T13:44:40.609Z,12.80
2018-09-23T13:48:48.994Z,15.13
2018-09-23T13:52:57.296Z,13.97
2018-09-23T13:57:05.552Z,14.43
2018-09-23T14:01:13.895Z,21.17
2018-09-23T14:05:22.290Z,16.57
2018-09-23T14:09:30.591Z,13.55
2018-09-23T14:13:38.706Z,15.20
2018-09-23T14:17:46.952Z,11.63
2018-09-23T14:21:55.462Z,12.20
2018-09-23T14:26:03.776Z,12.73
2018-09-23T14:30:12.075Z,12.53
2018-09-23T14:34:20.446Z,10.77
2018-09-23T14:38:28.784Z,10.63
2018-09-23T14:42:37.100Z,16.87
2018-09-23T14:46:45.378Z,13.40
2018-09-23T14:50:53.760Z,9.23
2018-09-23T14:55:02.103Z,11.50
2018-09-23T14:59:10.357Z,12.10
2018-09-23T15:03:19.360Z,13.57
2018-09-23T15:07:27.807Z,11.10
2018-09-23T15:11:36.260Z,15.30
2018-09-23T15:15:44.565Z,12.90
2018-09-23T15:19:52.903Z,11.07
2018-09-23T15:24:01.178Z,11.67
2018-09-23T15:28:09.546Z,9.57
2018-09-23T15:32:17.825Z,12.53
2018-09-23T15:36:26.114Z,10.43
2018-09-23T15:40:34.327Z,12.30
2018-09-23T15:44:42.626Z,11.15
2018-09-23T15:48:51.247Z,7.00
2018-09-23T15:52:59.507Z,14.60
2018-09-23T15:57:07.806Z,8.40
2018-09-23T16:01:16.101Z,9.77
2018-09-23T16:05:24.595Z,6.63
2018-09-23T16:09:32.880Z,6.17
2018-09-23T16:13:41.215Z,8.90
2018-09-23T16:17:49.660Z,11.53
2018-09-23T16:21:57.934Z,8.90
2018-09-23T16:26:06.281Z,12.40
2018-09-23T16:30:14.583Z,9.10
2018-09-23T16:34:23.144Z,13.90
2018-09-23T16:38:31.443Z,7.62
2018-09-23T16:42:39.811Z,6.90
2018-09-23T16:46:48.238Z,7.53
2018-09-23T16:50:56.529Z,7.27
2018-09-23T16:55:04.842Z,6.33
2018-09-23T16:59:13.116Z,5.63
2018-09-23T17:03:21.653Z,8.13
2018-09-23T17:07:30.008Z,5.60
2018-09-23T17:11:38.868Z,5.47
2018-09-23T17:15:47.150Z,5.80
2018-09-23T17:19:56.442Z,9.57
2018-09-23T17:24:04.794Z,5.60
2018-09-23T17:28:13.071Z,7.83
2018-09-23T17:32:21.716Z,8.23
2018-09-23T17:36:30.009Z,8.90
2018-09-23T17:40:38.316Z,6.37
2018-09-23T17:44:46.589Z,7.07
2018-09-23T17:48:54.952Z,7.00
2018-09-23T17:53:03.221Z,9.00
2018-09-23T17:57:11.504Z,5.17
2018-09-23T18:01:19.928Z,4.80
2018-09-23T18:05:28.214Z,5.10
2018-09-23T18:09:36.475Z,10.73
2018-09-23T18:13:44.781Z,4.90
2018-09-23T18:17:53.212Z,6.70
2018-09-23T18:22:01.496Z,5.90
2018-09-23T18:26:09.866Z,9.63
2018-09-23T18:30:18.320Z,5.10
2018-09-23T18:34:26.436Z,5.80
2018-09-23T18:38:34.727Z,3.33
2018-09-23T18:42:43.008Z,4.33
2018-09-23T18:46:51.345Z,4.27
2018-09-23T18:50:59.672Z,3.13
2018-09-23T18:55:15.468Z,3.43
2018-09-23T18:59:23.834Z,5.20
2018-09-23T19:03:32.172Z,4.83
2018-09-23T19:07:40.559Z,5.53
2018-09-23T19:11:48.893Z,5.20
2018-09-23T19:16:02.596Z,3.90
2018-09-23T19:20:11.227Z,5.30
2018-09-23T19:24:20.441Z,4.20
2018-09-23T19:28:28.831Z,4.00
2018-09-23T19:32:37.380Z,6.13
2018-09-23T19:36:45.699Z,6.00
2018-09-23T19:40:54.011Z,3.40
2018-09-23T19:45:02.327Z,5.70
2018-09-23T19:49:10.735Z,5.03
2018-09-23T19:53:19.005Z,6.43
2018-09-23T19:57:27.562Z,5.23
2018-09-23T20:01:36.011Z,5.43
2018-09-23T20:05:44.333Z,4.80
2018-09-23T20:09:52.682Z,4.30
2018-09-23T20:14:01.024Z,7.13
2018-09-23T20:18:09.457Z,6.13
2018-09-23T20:22:17.486Z,9.60
2018-09-23T20:26:25.865Z,6.07
2018-09-23T20:30:34.205Z,8.00
2018-09-23T20:34:42.689Z,8.27
2018-09-23T20:38:50.994Z,11.37
2018-09-23T20:42:59.276Z,6.67
2018-09-23T20:47:07.852Z,8.70
2018-09-23T20:51:16.115Z,8.50
2018-09-23T20:55:24.464Z,9.40
2018-09-23T20:59:32.749Z,12.50
2018-09-23T21:03:41.154Z,7.50
2018-09-23T21:07:49.460Z,7.77
2018-09-23T21:11:57.749Z,11.67
2018-09-23T21:16:06.346Z,8.80
2018-09-23T21:20:14.641Z,11.40
2018-09-23T21:24:22.893Z,11.73
2018-09-23T21:28:31.212Z,8.83
2018-09-23T21:32:39.839Z,10.27
2018-09-23T21:36:48.127Z,12.93
2018-09-23T21:40:56.559Z,11.93
2018-09-23T21:45:05.013Z,11.30
2018-09-23T21:49:13.407Z,10.00
2018-09-23T21:53:21.660Z,10.67
2018-09-23T21:57:29.958Z,15.40
2018-09-23T22:01:38.466Z,9.43
2018-09-23T22:05:46.802Z,11.90
2018-09-23T22:09:55.097Z,11.93
2018-09-23T22:14:03.436Z,11.93
2018-09-23T22:18:11.914Z,10.07
2018-09-23T22:22:20.209Z,9.40
2018-09-23T22:26:28.521Z,9.37
2018-09-23T22:30:36.986Z,10.73
2018-09-23T22:34:45.208Z,9.10
2018-09-23T22:38:53.508Z,9.80
2018-09-23T22:43:01.793Z,7.70
2018-09-23T22:47:10.438Z,13.50
2018-09-23T22:51:18.740Z,11.60
2018-09-23T22:55:27.121Z,9.57
2018-09-23T22:59:35.470Z,10.43
2018-09-23T23:03:43.744Z,11.70
2018-09-23T23:07:51.787Z,11.23
2018-09-23T23:12:00.070Z,8.40
2018-09-23T23:16:08.555Z,7.87
2018-09-23T23:20:16.808Z,6.73
2018-09-23T23:24:25.221Z,8.70
2018-09-23T23:28:33.541Z,5.47
2018-09-23T23:32:41.990Z,7.30
2018-09-23T23:36:50.299Z,11.40
2018-09-23T23:40:58.642Z,8.37
2018-09-23T23:45:07.250Z,10.97
2018-09-23T23:49:15.557Z,9.80
2018-09-23T23:53:23.870Z,8.97
2018-09-23T23:57:32.184Z,9.88
